createdAt,value
2018-02-26T00:01:11.595Z,4.10
2018-02-26T00:03:39.560Z,3.83
2018-02-26T00:06:07.583Z,3.05
2018-02-26T00:08:35.536Z,3.20
2018-02-26T00:11:03.508Z,3.33
2018-02-26T00:13:31.459Z,3.78
2018-02-26T00:15:59.422Z,3.67
2018-02-26T00:18:28.323Z,3.55
2018-02-26T00:20:56.458Z,3.55
2018-02-26T00:23:24.537Z,4.25
2018-02-26T00:25:52.538Z,3.85
2018-02-26T00:28:20.492Z,3.85
2018-02-26T00:30:48.487Z,4.15
2018-02-26T00:33:16.779Z,3.92
2018-02-26T00:35:44.739Z,4.05
2018-02-26T00:38:13.588Z,3.90
2018-02-26T00:40:41.559Z,4.00
2018-02-26T00:43:09.526Z,5.50
2018-02-26T00:45:37.716Z,4.35
2018-02-26T00:48:05.644Z,3.92
2018-02-26T00:50:33.767Z,4.43
2018-02-26T00:53:01.726Z,4.55
2018-02-26T00:55:29.828Z,4.10
2018-02-26T00:57:57.803Z,4.65
2018-02-26T01:00:25.746Z,4.32
2018-02-26T01:02:53.713Z,4.87
2018-02-26T01:05:21.660Z,3.80
2018-02-26T01:07:49.678Z,3.60
2018-02-26T01:10:17.631Z,3.75
2018-02-26T01:12:45.590Z,3.83
2018-02-26T01:15:13.514Z,3.42
2018-02-26T01:17:41.578Z,3.53
2018-02-26T01:20:09.523Z,3.75
2018-02-26T01:22:37.498Z,3.58
2018-02-26T01:25:05.574Z,3.72
2018-02-26T01:27:33.564Z,3.62
2018-02-26T01:30:01.512Z,3.62
2018-02-26T01:32:30.191Z,3.97
2018-02-26T01:34:58.172Z,4.25
2018-02-26T01:37:26.106Z,3.35
2018-02-26T01:39:54.098Z,4.10
2018-02-26T01:42:22.035Z,3.35
2018-02-26T01:44:50.086Z,3.70
2018-02-26T01:47:18.697Z,4.57
2018-02-26T01:49:46.655Z,3.60
2018-02-26T01:52:14.595Z,3.97
2018-02-26T01:54:42.578Z,4.03
2018-02-26T01:57:10.543Z,3.78
2018-02-26T01:59:38.538Z,4.00
2018-02-26T02:02:06.501Z,3.62
2018-02-26T02:04:34.476Z,3.67
2018-02-26T02:07:02.443Z,4.60
2018-02-26T02:09:30.410Z,4.07
2018-02-26T02:11:58.362Z,4.78
2018-02-26T02:14:26.345Z,3.70
2018-02-26T02:16:54.423Z,3.28
2018-02-26T02:19:22.375Z,4.35
2018-02-26T02:21:50.363Z,2.97
2018-02-26T02:24:18.287Z,3.37
2018-02-26T02:26:46.241Z,3.42
2018-02-26T02:29:14.247Z,3.00
2018-02-26T02:31:42.200Z,3.62
2018-02-26T02:34:10.345Z,3.47
2018-02-26T02:36:38.263Z,2.65
2018-02-26T02:39:06.206Z,2.70
2018-02-26T02:41:34.158Z,2.65
2018-02-26T02:44:02.097Z,3.10
2018-02-26T02:46:30.040Z,2.60
2018-02-26T02:48:58.000Z,2.15
2018-02-26T02:51:25.927Z,2.25
2018-02-26T02:53:53.877Z,2.70
2018-02-26T02:56:21.984Z,2.20
2018-02-26T02:58:49.908Z,2.53
2018-02-26T03:01:17.836Z,1.92
2018-02-26T03:03:45.772Z,2.03
2018-02-26T03:06:13.762Z,2.17
2018-02-26T03:08:41.688Z,1.70
2018-02-26T03:11:09.631Z,1.65
2018-02-26T03:13:37.579Z,2.05
2018-02-26T03:16:05.522Z,1.85
2018-02-26T03:18:33.684Z,2.17
2018-02-26T03:21:01.764Z,1.62
2018-02-26T03:23:29.737Z,2.03
2018-02-26T03:25:57.800Z,2.10
2018-02-26T03:28:25.728Z,1.40
2018-02-26T03:30:53.660Z,1.40
2018-02-26T03:33:21.728Z,1.67
2018-02-26T03:35:49.887Z,1.55
2018-02-26T03:38:17.818Z,2.03
2018-02-26T03:40:45.767Z,1.62
2018-02-26T03:43:13.725Z,1.92
2018-02-26T03:45:41.773Z,2.17
2018-02-26T03:48:09.827Z,1.55
2018-02-26T03:50:37.927Z,1.85
2018-02-26T03:53:05.881Z,1.70
2018-02-26T03:55:33.791Z,1.45
2018-02-26T03:58:01.743Z,1.80
2018-02-26T04:00:29.684Z,1.30
2018-02-26T04:02:57.659Z,1.70
2018-02-26T04:05:25.685Z,1.65
2018-02-26T04:07:53.634Z,1.30
2018-02-26T04:10:21.593Z,1.40
2018-02-26T04:12:49.537Z,1.25
2018-02-26T04:15:17.531Z,2.05
2018-02-26T04:17:45.478Z,1.77
2018-02-26T04:20:13.628Z,1.10
2018-02-26T04:22:41.601Z,1.70
2018-02-26T04:25:09.563Z,1.70
2018-02-26T04:27:37.586Z,1.60
2018-02-26T04:30:05.528Z,1.42
2018-02-26T04:32:33.601Z,1.30
2018-02-26T04:35:01.534Z,1.20
2018-02-26T04:37:29.515Z,1.73
2018-02-26T04:39:57.507Z,1.67
2018-02-26T04:42:25.482Z,2.53
2018-02-26T04:44:54.102Z,1.20
2018-02-26T04:47:22.130Z,1.77
2018-02-26T04:49:50.065Z,1.40
2018-02-26T04:52:19.036Z,1.98
2018-02-26T04:54:47.001Z,2.08
2018-02-26T04:57:14.978Z,1.90
2018-02-26T04:59:42.905Z,1.70
2018-02-26T05:02:11.086Z,2.00
2018-02-26T05:04:39.021Z,1.67
2018-02-26T05:07:07.024Z,1.60
2018-02-26T05:09:34.994Z,1.25
2018-02-26T05:12:02.914Z,2.03
2018-02-26T05:14:30.887Z,2.67
2018-02-26T05:16:58.838Z,1.48
2018-02-26T05:19:26.796Z,1.35
2018-02-26T05:21:54.811Z,1.50
2018-02-26T05:24:22.761Z,1.85
2018-02-26T05:26:50.711Z,1.95
2018-02-26T05:29:18.682Z,2.17
2018-02-26T05:31:46.620Z,2.05
2018-02-26T05:34:14.592Z,2.30
2018-02-26T05:36:42.555Z,2.03
2018-02-26T05:39:10.477Z,1.73
2018-02-26T05:41:38.442Z,2.30
2018-02-26T05:44:06.452Z,2.15
2018-02-26T05:46:34.544Z,2.45
2018-02-26T05:49:02.506Z,3.05
2018-02-26T05:51:31.875Z,2.80
2018-02-26T05:53:59.876Z,2.40
2018-02-26T05:56:27.836Z,2.75
2018-02-26T05:58:57.770Z,2.37
2018-02-26T06:01:27.685Z,2.75
2018-02-26T06:03:57.042Z,2.90
2018-02-26T06:06:25.015Z,3.30
2018-02-26T06:08:53.005Z,3.42
2018-02-26T06:11:20.961Z,3.60
2018-02-26T06:13:49.012Z,2.90
2018-02-26T06:16:16.981Z,2.75
2018-02-26T06:18:44.897Z,3.03
2018-02-26T06:21:12.896Z,3.10
2018-02-26T06:23:40.834Z,3.53
2018-02-26T06:26:08.795Z,3.85
2018-02-26T06:28:36.771Z,7.60
2018-02-26T06:31:04.674Z,4.03
2018-02-26T06:33:32.679Z,4.87
2018-02-26T06:36:00.603Z,3.65
2018-02-26T06:38:28.576Z,3.35
2018-02-26T06:40:56.486Z,3.15
2018-02-26T06:43:24.480Z,3.85
2018-02-26T06:45:52.422Z,4.62
2018-02-26T06:48:20.366Z,4.30
2018-02-26T06:50:48.554Z,3.25
2018-02-26T06:53:16.652Z,3.50
2018-02-26T06:55:44.607Z,3.17
2018-02-26T06:58:12.601Z,3.70
2018-02-26T07:00:40.605Z,3.42
2018-02-26T07:03:08.552Z,3.58
2018-02-26T07:05:36.515Z,3.50
2018-02-26T07:08:04.455Z,3.97
2018-02-26T07:10:32.448Z,3.30
2018-02-26T07:13:00.417Z,2.72
2018-02-26T07:15:28.701Z,2.70
2018-02-26T07:17:56.626Z,2.30
2018-02-26T07:20:25.338Z,2.90
2018-02-26T07:22:53.285Z,2.95
2018-02-26T07:25:21.226Z,2.55
2018-02-26T07:27:49.198Z,4.35
2018-02-26T07:30:17.568Z,3.28
2018-02-26T07:32:45.543Z,3.60
2018-02-26T07:35:13.540Z,4.53
2018-02-26T07:37:41.454Z,3.33
2018-02-26T07:40:09.429Z,3.33
2018-02-26T07:42:37.381Z,2.70
2018-02-26T07:45:05.323Z,2.97
2018-02-26T07:47:37.788Z,2.90
2018-02-26T07:50:05.742Z,2.25
2018-02-26T07:52:33.663Z,2.33
2018-02-26T07:55:01.589Z,2.25
2018-02-26T07:57:29.563Z,2.30
2018-02-26T07:59:58.861Z,2.10
2018-02-26T08:02:26.838Z,2.35
2018-02-26T08:04:55.365Z,2.35
2018-02-26T08:07:23.305Z,2.40
2018-02-26T08:09:51.388Z,1.90
2018-02-26T08:12:19.327Z,1.87
2018-02-26T08:14:47.296Z,2.45
2018-02-26T08:17:15.232Z,1.83
2018-02-26T08:19:43.180Z,1.92
2018-02-26T08:22:11.148Z,1.90
2018-02-26T08:24:39.119Z,1.75
2018-02-26T08:27:07.117Z,2.42
2018-02-26T08:29:35.275Z,1.83
2018-02-26T08:32:04.247Z,1.92
2018-02-26T08:34:32.153Z,2.20
2018-02-26T08:37:00.096Z,1.80
2018-02-26T08:39:28.054Z,2.22
2018-02-26T08:41:56.010Z,1.40
2018-02-26T08:44:23.999Z,1.67
2018-02-26T08:46:51.954Z,2.53
2018-02-26T08:49:19.967Z,1.50
2018-02-26T08:51:47.931Z,1.75
2018-02-26T08:54:15.876Z,1.50
2018-02-26T08:56:43.831Z,1.50
2018-02-26T08:59:11.784Z,1.75
2018-02-26T09:01:39.817Z,1.60
2018-02-26T09:04:08.215Z,2.15
2018-02-26T09:06:36.766Z,1.55
2018-02-26T09:09:04.719Z,1.87
2018-02-26T09:11:32.684Z,2.05
2018-02-26T09:14:00.660Z,1.70
2018-02-26T09:16:28.682Z,2.10
2018-02-26T09:18:56.602Z,2.00
2018-02-26T09:21:24.695Z,2.30
2018-02-26T09:23:52.638Z,19.73
2018-02-26T09:26:20.576Z,5.23
2018-02-26T09:28:48.509Z,5.87
2018-02-26T09:31:16.470Z,5.47
2018-02-26T09:33:44.396Z,21.07
2018-02-26T09:36:12.352Z,13.80
2018-02-26T09:38:40.311Z,10.07
2018-02-26T09:41:08.251Z,4.73
2018-02-26T09:43:36.462Z,10.90
2018-02-26T09:46:04.437Z,4.33
2018-02-26T09:48:32.405Z,20.90
2018-02-26T09:51:00.335Z,1.97
2018-02-26T09:53:28.309Z,1.80
2018-02-26T09:55:56.222Z,1.70
2018-02-26T09:58:24.167Z,1.40
2018-02-26T10:00:52.110Z,1.13
2018-02-26T10:03:21.109Z,1.40
2018-02-26T10:05:49.064Z,1.60
2018-02-26T10:08:17.033Z,1.00
2018-02-26T10:10:44.964Z,1.43
2018-02-26T10:13:12.976Z,1.57
2018-02-26T10:15:40.901Z,1.67
2018-02-26T10:18:08.826Z,1.40
2018-02-26T10:20:36.755Z,8.30
2018-02-26T10:23:04.750Z,41.40
2018-02-26T10:25:32.874Z,5.40
2018-02-26T10:28:00.874Z,5.00
2018-02-26T10:30:28.839Z,16.87
2018-02-26T10:32:56.864Z,13.53
2018-02-26T10:35:24.910Z,6.30
2018-02-26T10:37:52.856Z,6.93
2018-02-26T10:40:20.821Z,1.70
2018-02-26T10:42:48.760Z,1.57
2018-02-26T10:45:16.781Z,1.10
2018-02-26T10:47:44.729Z,1.40
2018-02-26T10:50:12.702Z,1.87
2018-02-26T10:52:40.652Z,1.43
2018-02-26T10:55:08.826Z,2.00
2018-02-26T10:57:36.813Z,1.47
2018-02-26T11:00:04.842Z,1.60
2018-02-26T11:02:32.881Z,1.97
2018-02-26T11:05:00.879Z,1.37
2018-02-26T11:07:28.938Z,1.83
2018-02-26T11:09:56.970Z,2.43
2018-02-26T11:12:25.011Z,1.00
2018-02-26T11:14:53.019Z,0.80
2018-02-26T11:17:21.012Z,1.03
2018-02-26T11:19:49.016Z,1.50
2018-02-26T11:22:17.067Z,1.67
2018-02-26T11:24:45.160Z,1.13
2018-02-26T11:27:13.138Z,1.33
2018-02-26T11:29:41.089Z,1.53
2018-02-26T11:32:09.028Z,1.40
2018-02-26T11:34:36.964Z,1.77
2018-02-26T11:37:04.955Z,1.60
2018-02-26T11:39:33.040Z,1.70
2018-02-26T11:42:00.980Z,1.50
2018-02-26T11:44:28.933Z,1.70
2018-02-26T11:46:56.891Z,1.70
2018-02-26T11:49:24.861Z,1.50
2018-02-26T11:51:52.814Z,1.63
2018-02-26T11:54:21.518Z,1.20
2018-02-26T11:56:49.497Z,0.97
2018-02-26T11:59:17.500Z,1.07
2018-02-26T12:01:45.467Z,1.20
2018-02-26T12:04:13.558Z,1.10
2018-02-26T12:06:42.176Z,1.00
2018-02-26T12:09:10.103Z,1.00
2018-02-26T12:11:38.065Z,1.20
2018-02-26T12:14:06.003Z,0.80
2018-02-26T12:16:34.084Z,1.03
2018-02-26T12:19:02.758Z,1.23
2018-02-26T12:21:30.726Z,0.90
2018-02-26T12:23:58.874Z,0.93
2018-02-26T12:26:26.870Z,1.37
2018-02-26T12:28:54.826Z,1.17
2018-02-26T12:31:22.814Z,1.30
2018-02-26T12:33:50.768Z,2.00
2018-02-26T12:36:18.723Z,1.50
2018-02-26T12:38:46.877Z,1.00
2018-02-26T12:41:14.946Z,1.70
2018-02-26T12:43:42.904Z,1.93
2018-02-26T12:46:10.946Z,2.57
2018-02-26T12:48:38.892Z,1.83
2018-02-26T12:51:06.903Z,7.43
2018-02-26T12:53:34.880Z,1.60
2018-02-26T12:56:02.842Z,2.00
2018-02-26T12:58:30.871Z,2.37
2018-02-26T13:00:59.005Z,1.77
2018-02-26T13:03:26.939Z,1.93
2018-02-26T13:05:55.098Z,2.10
2018-02-26T13:08:23.061Z,1.70
2018-02-26T13:10:51.002Z,1.87
2018-02-26T13:13:18.936Z,1.67
2018-02-26T13:15:47.069Z,2.03
2018-02-26T13:18:14.995Z,2.50
2018-02-26T13:20:43.098Z,2.00
2018-02-26T13:23:11.215Z,22.10
2018-02-26T13:25:39.258Z,30.80
2018-02-26T13:28:07.219Z,65.60
2018-02-26T13:30:35.299Z,3.07
2018-02-26T13:33:03.230Z,1.80
2018-02-26T13:35:31.198Z,1.80
2018-02-26T13:37:59.147Z,2.00
2018-02-26T13:40:27.146Z,2.30
2018-02-26T13:42:55.414Z,2.03
2018-02-26T13:45:23.357Z,2.33
2018-02-26T13:47:51.280Z,2.20
2018-02-26T13:50:19.267Z,3.00
2018-02-26T13:52:47.192Z,2.00
2018-02-26T13:55:15.128Z,1.93
2018-02-26T13:57:43.106Z,2.20
2018-02-26T14:00:11.064Z,1.90
2018-02-26T14:02:39.068Z,2.43
2018-02-26T14:05:07.168Z,3.20
2018-02-26T14:07:35.085Z,7.20
2018-02-26T14:10:03.128Z,3.40
2018-02-26T14:12:31.019Z,6.10
2018-02-26T14:14:58.943Z,3.80
2018-02-26T14:17:26.875Z,3.63
2018-02-26T14:19:54.834Z,3.30
2018-02-26T14:22:22.865Z,2.07
2018-02-26T14:24:51.011Z,2.33
2018-02-26T14:27:18.911Z,2.70
2018-02-26T14:29:46.881Z,4.33
2018-02-26T14:32:14.835Z,4.93
2018-02-26T14:34:42.771Z,2.13
2018-02-26T14:37:10.714Z,2.10
2018-02-26T14:39:38.650Z,1.90
2018-02-26T14:42:06.628Z,1.93
2018-02-26T14:44:34.583Z,2.20
2018-02-26T14:47:02.546Z,2.43
2018-02-26T14:49:30.487Z,2.30
2018-02-26T14:51:58.427Z,2.30
2018-02-26T14:54:26.604Z,1.93
2018-02-26T14:56:54.529Z,2.13
2018-02-26T14:59:22.503Z,2.30
2018-02-26T15:01:50.498Z,1.77
2018-02-26T15:04:18.437Z,2.70
2018-02-26T15:06:46.397Z,2.80
2018-02-26T15:09:14.333Z,2.17
2018-02-26T15:11:42.370Z,2.80
2018-02-26T15:14:10.414Z,2.47
2018-02-26T15:16:38.361Z,2.30
2018-02-26T15:19:06.318Z,2.90
2018-02-26T15:21:34.269Z,1.95
2018-02-26T15:24:02.985Z,1.67
2018-02-26T15:26:30.924Z,1.70
2018-02-26T15:28:58.900Z,2.15
2018-02-26T15:31:26.837Z,2.70
2018-02-26T15:33:54.786Z,1.63
2018-02-26T15:36:22.731Z,2.10
2018-02-26T15:38:50.730Z,2.30
2018-02-26T15:41:20.954Z,2.15
2018-02-26T15:43:48.962Z,1.87
2018-02-26T15:46:16.934Z,2.20
2018-02-26T15:48:44.902Z,2.90
2018-02-26T15:51:12.974Z,18.90
2018-02-26T15:53:40.982Z,34.40
2018-02-26T15:56:09.497Z,3.87
2018-02-26T15:58:37.435Z,1.80
2018-02-26T16:01:05.424Z,1.58
2018-02-26T16:03:33.495Z,1.80
2018-02-26T16:06:01.948Z,1.60
2018-02-26T16:08:29.898Z,2.10
2018-02-26T16:10:58.010Z,1.60
2018-02-26T16:13:25.975Z,1.55
2018-02-26T16:15:53.963Z,1.70
2018-02-26T16:18:21.927Z,1.70
2018-02-26T16:20:49.915Z,25.88
2018-02-26T16:23:18.590Z,50.77
2018-02-26T16:25:46.493Z,50.88
2018-02-26T16:28:14.466Z,4.53
2018-02-26T16:30:42.454Z,2.22
2018-02-26T16:33:10.386Z,1.40
2018-02-26T16:35:38.319Z,2.30
2018-02-26T16:38:06.247Z,2.87
2018-02-26T16:40:34.218Z,2.80
2018-02-26T16:43:02.182Z,2.60
2018-02-26T16:45:30.091Z,2.35
2018-02-26T16:47:58.043Z,1.90
2018-02-26T16:50:25.972Z,2.42
2018-02-26T16:52:54.062Z,2.35
2018-02-26T16:55:22.030Z,2.00
2018-02-26T16:57:50.053Z,3.10
2018-02-26T17:00:17.976Z,2.47
2018-02-26T17:02:45.905Z,2.43
2018-02-26T17:05:13.865Z,1.85
2018-02-26T17:07:41.784Z,1.67
2018-02-26T17:10:09.752Z,2.47
2018-02-26T17:12:37.719Z,2.15
2018-02-26T17:15:05.682Z,2.80
2018-02-26T17:17:33.776Z,2.50
2018-02-26T17:20:01.726Z,2.37
2018-02-26T17:22:29.746Z,2.08
2018-02-26T17:24:57.723Z,1.87
2018-02-26T17:27:25.804Z,1.90
2018-02-26T17:29:53.773Z,1.83
2018-02-26T17:32:21.819Z,5.78
2018-02-26T17:34:49.829Z,5.25
2018-02-26T17:37:17.799Z,5.22
2018-02-26T17:39:45.774Z,12.70
2018-02-26T17:42:13.724Z,3.37
2018-02-26T17:44:41.749Z,3.42
2018-02-26T17:47:09.698Z,3.62
2018-02-26T17:49:37.672Z,3.42
2018-02-26T17:52:05.640Z,3.00
2018-02-26T17:54:33.612Z,2.70
2018-02-26T17:57:01.554Z,3.00
2018-02-26T17:59:29.508Z,2.42
2018-02-26T18:01:57.492Z,2.10
2018-02-26T18:04:25.445Z,8.43
2018-02-26T18:06:53.432Z,2.75
2018-02-26T18:09:21.375Z,2.60
2018-02-26T18:11:49.365Z,2.80
2018-02-26T18:14:17.346Z,2.70
2018-02-26T18:16:45.273Z,33.17
2018-02-26T18:19:13.754Z,42.22
2018-02-26T18:21:41.682Z,59.85
2018-02-26T18:24:09.650Z,55.63
2018-02-26T18:26:37.603Z,54.20
2018-02-26T19:01:05.656Z,3.97
2018-02-26T19:03:33.615Z,3.50
2018-02-26T19:06:01.651Z,3.47
2018-02-26T19:08:29.543Z,3.72
2018-02-26T19:10:58.797Z,3.42
2018-02-26T19:13:26.795Z,5.43
2018-02-26T19:15:54.756Z,5.55
2018-02-26T19:18:23.834Z,4.80
2018-02-26T19:20:51.839Z,3.78
2018-02-26T19:23:19.792Z,3.83
2018-02-26T19:25:47.852Z,3.67
2018-02-26T19:28:15.844Z,3.40
2018-02-26T19:30:43.880Z,3.92
2018-02-26T19:33:11.925Z,4.60
2018-02-26T19:35:39.861Z,5.03
2018-02-26T19:38:07.790Z,3.95
2018-02-26T19:40:36.600Z,4.05
2018-02-26T19:43:04.577Z,3.75
2018-02-26T19:45:32.517Z,4.32
2018-02-26T19:48:00.513Z,5.30
2018-02-26T19:50:28.554Z,4.30
2018-02-26T19:52:56.545Z,4.87
2018-02-26T19:55:24.472Z,68.87
2018-02-26T19:57:52.426Z,53.28
2018-02-26T20:00:20.530Z,31.67
2018-02-26T20:02:48.529Z,11.73
2018-02-26T20:05:16.501Z,5.25
2018-02-26T20:07:44.443Z,5.43
2018-02-26T20:10:12.397Z,5.03
2018-02-26T20:12:40.348Z,4.97
2018-02-26T20:15:08.419Z,4.80
2018-02-26T20:17:36.386Z,4.10
2018-02-26T20:20:04.377Z,4.85
2018-02-26T20:22:32.361Z,4.45
2018-02-26T20:25:00.330Z,4.25
2018-02-26T20:27:28.268Z,5.30
2018-02-26T20:29:56.421Z,5.50
2018-02-26T20:32:24.570Z,5.00
2018-02-26T20:34:52.477Z,5.20
2018-02-26T20:37:20.497Z,5.93
2018-02-26T20:39:48.448Z,5.20
2018-02-26T20:42:16.394Z,5.62
2018-02-26T20:44:44.357Z,5.28
2018-02-26T20:47:12.285Z,5.57
2018-02-26T20:49:40.286Z,6.50
2018-02-26T20:52:08.228Z,6.87
2018-02-26T20:54:36.765Z,7.22
2018-02-26T20:57:04.826Z,8.32
2018-02-26T20:59:32.789Z,8.23
2018-02-26T21:02:00.746Z,6.90
2018-02-26T21:04:28.767Z,6.03
2018-02-26T21:06:56.838Z,7.12
2018-02-26T21:09:24.776Z,5.35
2018-02-26T21:11:52.784Z,6.40
2018-02-26T21:14:20.642Z,7.60
2018-02-26T21:16:48.586Z,6.85
2018-02-26T21:19:16.550Z,6.50
2018-02-26T21:21:44.453Z,6.90
2018-02-26T21:24:12.903Z,6.60
2018-02-26T21:26:40.853Z,11.32
2018-02-26T21:29:08.769Z,31.87
2018-02-26T21:31:36.737Z,41.20
2018-02-26T21:34:04.736Z,38.40
2018-02-26T21:36:32.703Z,33.10
2018-02-26T21:39:00.702Z,35.78
2018-02-26T21:41:28.647Z,42.97
2018-02-26T21:43:56.578Z,27.23
2018-02-26T21:46:24.508Z,5.47
2018-02-26T21:48:52.472Z,5.40
2018-02-26T21:51:20.413Z,5.60
2018-02-26T21:53:48.394Z,46.35
2018-02-26T21:56:16.433Z,31.17
2018-02-26T21:58:44.464Z,43.42
2018-02-26T22:01:12.382Z,46.20
2018-02-26T22:03:40.436Z,7.47
2018-02-26T22:06:08.404Z,6.20
2018-02-26T22:08:36.374Z,7.32
2018-02-26T22:11:04.347Z,6.20
2018-02-26T22:13:32.275Z,6.12
2018-02-26T22:16:00.303Z,7.40
2018-02-26T22:18:28.227Z,6.85
2018-02-26T22:20:56.401Z,6.90
2018-02-26T22:23:24.357Z,7.78
2018-02-26T22:25:52.277Z,7.30
2018-02-26T22:28:20.229Z,7.10
2018-02-26T22:30:48.173Z,7.20
2018-02-26T22:33:16.189Z,7.80
2018-02-26T22:35:44.197Z,7.55
2018-02-26T22:38:12.114Z,7.18
2018-02-26T22:40:40.073Z,6.47
2018-02-26T22:43:08.002Z,7.10
2018-02-26T22:45:35.951Z,7.75
2018-02-26T22:48:03.894Z,6.95
2018-02-26T22:50:31.875Z,7.22
2018-02-26T22:52:59.964Z,8.68
2018-02-26T22:55:27.979Z,7.53
2018-02-26T22:57:55.917Z,7.43
2018-02-26T23:00:23.878Z,8.30
2018-02-26T23:02:51.827Z,7.40
2018-02-26T23:05:19.826Z,8.13
2018-02-26T23:07:48.235Z,8.13
2018-02-26T23:10:16.183Z,9.68
2018-02-26T23:12:44.278Z,8.65
2018-02-26T23:15:12.247Z,8.07
2018-02-26T23:17:40.192Z,9.50
2018-02-26T23:20:08.246Z,7.95
2018-02-26T23:22:36.760Z,8.60
2018-02-26T23:25:04.722Z,9.02
2018-02-26T23:27:32.771Z,9.05
2018-02-26T23:30:01.210Z,9.05
2018-02-26T23:32:29.213Z,7.60
2018-02-26T23:34:57.203Z,8.52
2018-02-26T23:37:25.159Z,8.93
2018-02-26T23:39:53.145Z,8.25
2018-02-26T23:42:21.109Z,9.07
2018-02-26T23:44:49.064Z,8.10
2018-02-26T23:47:16.997Z,8.73
2018-02-26T23:49:44.946Z,7.85
2018-02-26T23:52:12.888Z,7.25
2018-02-26T23:54:48.818Z,9.70
2018-02-26T23:57:16.769Z,8.18
2018-02-26T23:59:44.731Z,8.15
